sensor_id;sensor_type;location;lat;lon;timestamp;P1;durP1;ratioP1;P2;durP2;ratioP2
77109;SDS011;66062;52.464;16.922;2023-06-14T00:00:30;18.00;;;12.23;;
77109;SDS011;66062;52.464;16.922;2023-06-14T00:02:56;10.90;;;7.75;;
77109;SDS011;66062;52.464;16.922;2023-06-14T00:05:22;9.07;;;7.32;;
77109;SDS011;66062;52.464;16.922;2023-06-14T00:07:48;10.75;;;7.97;;
77109;SDS011;66062;52.464;16.922;2023-06-14T00:10:14;11.75;;;7.90;;
77109;SDS011;66062;52.464;16.922;2023-06-14T00:12:40;10.00;;;7.63;;
77109;SDS011;66062;52.464;16.922;2023-06-14T00:15:06;11.23;;;8.45;;
77109;SDS011;66062;52.464;16.922;2023-06-14T00:17:32;11.05;;;7.85;;
77109;SDS011;66062;52.464;16.922;2023-06-14T00:19:59;9.25;;;7.53;;
77109;SDS011;66062;52.464;16.922;2023-06-14T00:22:25;10.02;;;7.78;;
77109;SDS011;66062;52.464;16.922;2023-06-14T00:24:51;9.75;;;8.43;;
77109;SDS011;66062;52.464;16.922;2023-06-14T00:27:17;11.70;;;7.20;;
77109;SDS011;66062;52.464;16.922;2023-06-14T00:29:42;8.88;;;7.38;;
77109;SDS011;66062;52.464;16.922;2023-06-14T00:32:08;12.85;;;7.43;;
77109;SDS011;66062;52.464;16.922;2023-06-14T00:34:33;8.90;;;6.80;;
77109;SDS011;66062;52.464;16.922;2023-06-14T00:36:59;10.10;;;6.57;;
77109;SDS011;66062;52.464;16.922;2023-06-14T00:39:25;10.25;;;6.63;;
77109;SDS011;66062;52.464;16.922;2023-06-14T00:41:50;10.27;;;7.80;;
77109;SDS011;66062;52.464;16.922;2023-06-14T00:44:16;8.10;;;5.72;;
77109;SDS011;66062;52.464;16.922;2023-06-14T00:46:43;9.82;;;7.68;;
77109;SDS011;66062;52.464;16.922;2023-06-14T00:49:09;11.20;;;7.05;;
77109;SDS011;66062;52.464;16.922;2023-06-14T00:51:36;11.82;;;6.57;;
77109;SDS011;66062;52.464;16.922;2023-06-14T00:54:02;11.45;;;7.45;;
77109;SDS011;66062;52.464;16.922;2023-06-14T00:56:28;10.10;;;7.38;;
77109;SDS011;66062;52.464;16.922;2023-06-14T00:58:55;10.25;;;7.80;;
77109;SDS011;66062;52.464;16.922;2023-06-14T01:03:47;7.28;;;6.03;;
77109;SDS011;66062;52.464;16.922;2023-06-14T01:06:19;8.38;;;6.07;;
77109;SDS011;66062;52.464;16.922;2023-06-14T01:11:50;8.75;;;6.03;;
77109;SDS011;66062;52.464;16.922;2023-06-14T01:14:24;10.55;;;5.65;;
77109;SDS011;66062;52.464;16.922;2023-06-14T01:16:53;7.65;;;6.35;;
77109;SDS011;66062;52.464;16.922;2023-06-14T01:19:20;10.77;;;6.47;;
77109;SDS011;66062;52.464;16.922;2023-06-14T01:21:47;8.43;;;5.63;;
77109;SDS011;66062;52.464;16.922;2023-06-14T01:24:16;10.15;;;6.30;;
77109;SDS011;66062;52.464;16.922;2023-06-14T01:26:41;8.55;;;6.10;;
77109;SDS011;66062;52.464;16.922;2023-06-14T01:29:10;10.85;;;6.07;;
77109;SDS011;66062;52.464;16.922;2023-06-14T01:31:37;7.53;;;6.00;;
77109;SDS011;66062;52.464;16.922;2023-06-14T01:34:06;9.73;;;6.43;;
77109;SDS011;66062;52.464;16.922;2023-06-14T01:36:33;9.73;;;6.43;;
77109;SDS011;66062;52.464;16.922;2023-06-14T01:39:00;8.10;;;5.93;;
77109;SDS011;66062;52.464;16.922;2023-06-14T01:41:27;9.07;;;5.88;;
77109;SDS011;66062;52.464;16.922;2023-06-14T01:43:54;7.70;;;5.90;;
77109;SDS011;66062;52.464;16.922;2023-06-14T01:46:20;7.68;;;5.43;;
77109;SDS011;66062;52.464;16.922;2023-06-14T01:48:46;7.78;;;6.78;;
77109;SDS011;66062;52.464;16.922;2023-06-14T01:51:12;9.23;;;6.30;;
77109;SDS011;66062;52.464;16.922;2023-06-14T01:53:38;10.63;;;6.20;;
77109;SDS011;66062;52.464;16.922;2023-06-14T01:56:03;8.02;;;6.20;;
77109;SDS011;66062;52.464;16.922;2023-06-14T01:58:29;9.27;;;6.05;;
77109;SDS011;66062;52.464;16.922;2023-06-14T02:00:54;7.65;;;5.65;;
77109;SDS011;66062;52.464;16.922;2023-06-14T02:03:22;8.82;;;6.20;;
77109;SDS011;66062;52.464;16.922;2023-06-14T02:05:49;9.50;;;6.20;;
77109;SDS011;66062;52.464;16.922;2023-06-14T02:08:15;6.65;;;5.57;;
77109;SDS011;66062;52.464;16.922;2023-06-14T02:10:40;9.55;;;6.20;;
77109;SDS011;66062;52.464;16.922;2023-06-14T02:13:05;7.90;;;5.68;;
77109;SDS011;66062;52.464;16.922;2023-06-14T02:15:31;8.05;;;6.05;;
77109;SDS011;66062;52.464;16.922;2023-06-14T02:17:59;8.18;;;5.70;;
77109;SDS011;66062;52.464;16.922;2023-06-14T02:20:26;9.25;;;5.93;;
77109;SDS011;66062;52.464;16.922;2023-06-14T02:22:52;9.88;;;6.30;;
77109;SDS011;66062;52.464;16.922;2023-06-14T02:25:17;12.80;;;5.68;;
77109;SDS011;66062;52.464;16.922;2023-06-14T02:27:43;11.40;;;6.57;;
77109;SDS011;66062;52.464;16.922;2023-06-14T02:30:08;10.93;;;6.78;;
77109;SDS011;66062;52.464;16.922;2023-06-14T02:32:34;9.73;;;6.47;;
77109;SDS011;66062;52.464;16.922;2023-06-14T02:35:00;8.05;;;6.55;;
77109;SDS011;66062;52.464;16.922;2023-06-14T02:37:26;8.95;;;6.10;;
77109;SDS011;66062;52.464;16.922;2023-06-14T02:39:53;10.32;;;6.93;;
77109;SDS011;66062;52.464;16.922;2023-06-14T02:42:18;9.38;;;6.82;;
77109;SDS011;66062;52.464;16.922;2023-06-14T02:44:43;9.15;;;6.95;;
77109;SDS011;66062;52.464;16.922;2023-06-14T02:47:10;9.25;;;7.18;;
77109;SDS011;66062;52.464;16.922;2023-06-14T02:49:35;9.63;;;7.13;;
77109;SDS011;66062;52.464;16.922;2023-06-14T02:52:01;9.95;;;8.10;;
77109;SDS011;66062;52.464;16.922;2023-06-14T02:54:27;10.05;;;7.53;;
77109;SDS011;66062;52.464;16.922;2023-06-14T02:56:53;11.02;;;7.75;;
77109;SDS011;66062;52.464;16.922;2023-06-14T02:59:18;10.00;;;7.07;;
77109;SDS011;66062;52.464;16.922;2023-06-14T03:01:46;8.25;;;6.43;;
77109;SDS011;66062;52.464;16.922;2023-06-14T03:04:11;8.45;;;6.70;;
77109;SDS011;66062;52.464;16.922;2023-06-14T03:06:37;10.25;;;6.68;;
77109;SDS011;66062;52.464;16.922;2023-06-14T03:09:04;9.13;;;7.80;;
77109;SDS011;66062;52.464;16.922;2023-06-14T03:11:30;26.90;;;17.27;;
77109;SDS011;66062;52.464;16.922;2023-06-14T03:13:57;8.60;;;6.53;;
77109;SDS011;66062;52.464;16.922;2023-06-14T03:16:23;8.40;;;6.95;;
77109;SDS011;66062;52.464;16.922;2023-06-14T03:18:52;9.23;;;6.50;;
77109;SDS011;66062;52.464;16.922;2023-06-14T03:21:21;8.90;;;5.88;;
77109;SDS011;66062;52.464;16.922;2023-06-14T03:23:47;8.98;;;6.35;;
77109;SDS011;66062;52.464;16.922;2023-06-14T03:26:13;10.32;;;6.43;;
77109;SDS011;66062;52.464;16.922;2023-06-14T03:28:40;11.98;;;6.90;;
77109;SDS011;66062;52.464;16.922;2023-06-14T03:33:33;13.38;;;6.05;;
77109;SDS011;66062;52.464;16.922;2023-06-14T03:35:59;7.25;;;5.75;;
77109;SDS011;66062;52.464;16.922;2023-06-14T03:38:25;7.00;;;5.13;;
77109;SDS011;66062;52.464;16.922;2023-06-14T03:40:50;7.88;;;5.80;;
77109;SDS011;66062;52.464;16.922;2023-06-14T03:43:16;18.88;;;12.43;;
77109;SDS011;66062;52.464;16.922;2023-06-14T03:45:41;10.20;;;6.20;;
77109;SDS011;66062;52.464;16.922;2023-06-14T03:48:06;9.32;;;6.38;;
77109;SDS011;66062;52.464;16.922;2023-06-14T03:50:33;9.40;;;5.93;;
77109;SDS011;66062;52.464;16.922;2023-06-14T03:52:59;8.60;;;5.47;;
77109;SDS011;66062;52.464;16.922;2023-06-14T03:57:52;8.98;;;5.32;;
77109;SDS011;66062;52.464;16.922;2023-06-14T04:00:18;8.10;;;5.95;;
77109;SDS011;66062;52.464;16.922;2023-06-14T04:02:43;9.73;;;5.80;;
77109;SDS011;66062;52.464;16.922;2023-06-14T04:05:09;8.43;;;5.60;;
77109;SDS011;66062;52.464;16.922;2023-06-14T04:07:35;7.28;;;5.40;;
77109;SDS011;66062;52.464;16.922;2023-06-14T04:10:10;8.25;;;6.07;;
77109;SDS011;66062;52.464;16.922;2023-06-14T04:15:02;9.10;;;6.03;;
77109;SDS011;66062;52.464;16.922;2023-06-14T04:17:28;7.47;;;5.40;;
77109;SDS011;66062;52.464;16.922;2023-06-14T04:19:54;8.35;;;5.97;;
77109;SDS011;66062;52.464;16.922;2023-06-14T04:22:20;12.73;;;5.68;;
77109;SDS011;66062;52.464;16.922;2023-06-14T04:24:45;8.40;;;5.95;;
77109;SDS011;66062;52.464;16.922;2023-06-14T04:27:11;9.20;;;5.28;;
77109;SDS011;66062;52.464;16.922;2023-06-14T04:29:36;9.52;;;6.20;;
77109;SDS011;66062;52.464;16.922;2023-06-14T04:32:02;11.55;;;5.57;;
77109;SDS011;66062;52.464;16.922;2023-06-14T04:34:28;9.02;;;5.82;;
77109;SDS011;66062;52.464;16.922;2023-06-14T04:36:59;11.32;;;5.40;;
77109;SDS011;66062;52.464;16.922;2023-06-14T04:39:26;7.60;;;5.53;;
77109;SDS011;66062;52.464;16.922;2023-06-14T04:41:52;9.70;;;5.57;;
77109;SDS011;66062;52.464;16.922;2023-06-14T04:44:21;8.43;;;5.45;;
77109;SDS011;66062;52.464;16.922;2023-06-14T04:46:54;7.80;;;6.22;;
77109;SDS011;66062;52.464;16.922;2023-06-14T04:49:21;10.75;;;5.35;;
77109;SDS011;66062;52.464;16.922;2023-06-14T04:51:48;6.80;;;4.75;;
77109;SDS011;66062;52.464;16.922;2023-06-14T04:54:22;6.90;;;5.20;;
77109;SDS011;66062;52.464;16.922;2023-06-14T04:56:49;7.82;;;5.10;;
77109;SDS011;66062;52.464;16.922;2023-06-14T04:59:15;7.07;;;4.53;;
77109;SDS011;66062;52.464;16.922;2023-06-14T05:01:42;8.65;;;5.05;;
77109;SDS011;66062;52.464;16.922;2023-06-14T05:04:12;8.20;;;5.32;;
77109;SDS011;66062;52.464;16.922;2023-06-14T05:06:38;9.77;;;5.55;;
77109;SDS011;66062;52.464;16.922;2023-06-14T05:09:04;11.48;;;5.72;;
77109;SDS011;66062;52.464;16.922;2023-06-14T05:11:29;7.95;;;5.95;;
77109;SDS011;66062;52.464;16.922;2023-06-14T05:13:55;8.75;;;5.50;;
77109;SDS011;66062;52.464;16.922;2023-06-14T05:16:23;10.20;;;5.45;;
77109;SDS011;66062;52.464;16.922;2023-06-14T05:18:50;7.00;;;5.38;;
77109;SDS011;66062;52.464;16.922;2023-06-14T05:21:17;8.32;;;5.85;;
77109;SDS011;66062;52.464;16.922;2023-06-14T05:23:44;10.35;;;5.72;;
77109;SDS011;66062;52.464;16.922;2023-06-14T05:26:10;9.27;;;5.75;;
77109;SDS011;66062;52.464;16.922;2023-06-14T05:28:35;8.77;;;6.13;;
77109;SDS011;66062;52.464;16.922;2023-06-14T05:31:01;10.63;;;5.47;;
77109;SDS011;66062;52.464;16.922;2023-06-14T05:33:27;8.27;;;6.13;;
77109;SDS011;66062;52.464;16.922;2023-06-14T05:35:52;7.28;;;6.15;;
77109;SDS011;66062;52.464;16.922;2023-06-14T05:38:18;11.43;;;6.43;;
77109;SDS011;66062;52.464;16.922;2023-06-14T05:40:43;9.85;;;5.75;;
77109;SDS011;66062;52.464;16.922;2023-06-14T05:43:09;10.13;;;6.32;;
77109;SDS011;66062;52.464;16.922;2023-06-14T05:45:35;8.40;;;6.93;;
77109;SDS011;66062;52.464;16.922;2023-06-14T05:48:01;11.57;;;6.82;;
77109;SDS011;66062;52.464;16.922;2023-06-14T05:50:27;7.95;;;6.50;;
77109;SDS011;66062;52.464;16.922;2023-06-14T05:52:53;11.32;;;7.50;;
77109;SDS011;66062;52.464;16.922;2023-06-14T05:55:18;14.05;;;8.30;;
77109;SDS011;66062;52.464;16.922;2023-06-14T05:57:44;9.85;;;7.65;;
77109;SDS011;66062;52.464;16.922;2023-06-14T06:00:10;14.52;;;8.25;;
77109;SDS011;66062;52.464;16.922;2023-06-14T06:02:39;9.60;;;7.95;;
77109;SDS011;66062;52.464;16.922;2023-06-14T06:05:06;12.48;;;8.18;;
77109;SDS011;66062;52.464;16.922;2023-06-14T06:07:31;14.35;;;8.45;;
77109;SDS011;66062;52.464;16.922;2023-06-14T06:09:57;16.23;;;7.95;;
77109;SDS011;66062;52.464;16.922;2023-06-14T06:12:23;10.88;;;8.00;;
77109;SDS011;66062;52.464;16.922;2023-06-14T06:14:48;10.93;;;7.80;;
77109;SDS011;66062;52.464;16.922;2023-06-14T06:17:13;9.05;;;7.05;;
77109;SDS011;66062;52.464;16.922;2023-06-14T06:19:39;11.15;;;7.80;;
77109;SDS011;66062;52.464;16.922;2023-06-14T06:22:05;14.27;;;8.75;;
77109;SDS011;66062;52.464;16.922;2023-06-14T06:24:31;13.63;;;8.23;;
77109;SDS011;66062;52.464;16.922;2023-06-14T06:26:57;10.82;;;8.00;;
77109;SDS011;66062;52.464;16.922;2023-06-14T06:29:22;13.52;;;8.73;;
77109;SDS011;66062;52.464;16.922;2023-06-14T06:31:48;12.57;;;8.85;;
77109;SDS011;66062;52.464;16.922;2023-06-14T06:34:13;10.68;;;7.82;;
77109;SDS011;66062;52.464;16.922;2023-06-14T06:36:39;12.73;;;8.90;;
77109;SDS011;66062;52.464;16.922;2023-06-14T06:39:04;10.60;;;8.48;;
77109;SDS011;66062;52.464;16.922;2023-06-14T06:41:35;15.18;;;8.95;;
77109;SDS011;66062;52.464;16.922;2023-06-14T06:44:04;12.45;;;9.10;;
77109;SDS011;66062;52.464;16.922;2023-06-14T06:46:30;12.70;;;8.10;;
77109;SDS011;66062;52.464;16.922;2023-06-14T06:48:57;9.88;;;8.43;;
77109;SDS011;66062;52.464;16.922;2023-06-14T06:51:23;9.90;;;7.78;;
77109;SDS011;66062;52.464;16.922;2023-06-14T06:53:52;10.35;;;7.68;;
77109;SDS011;66062;52.464;16.922;2023-06-14T06:56:18;8.38;;;6.72;;
77109;SDS011;66062;52.464;16.922;2023-06-14T06:58:44;8.52;;;6.30;;
77109;SDS011;66062;52.464;16.922;2023-06-14T07:01:10;11.00;;;7.10;;
77109;SDS011;66062;52.464;16.922;2023-06-14T07:03:36;9.85;;;7.80;;
77109;SDS011;66062;52.464;16.922;2023-06-14T07:06:02;15.30;;;8.13;;
77109;SDS011;66062;52.464;16.922;2023-06-14T07:08:27;8.98;;;6.80;;
77109;SDS011;66062;52.464;16.922;2023-06-14T07:10:53;12.98;;;8.65;;
77109;SDS011;66062;52.464;16.922;2023-06-14T07:13:18;12.27;;;6.55;;
77109;SDS011;66062;52.464;16.922;2023-06-14T07:15:44;8.85;;;7.53;;
77109;SDS011;66062;52.464;16.922;2023-06-14T07:18:10;7.90;;;6.40;;
77109;SDS011;66062;52.464;16.922;2023-06-14T07:20:35;8.80;;;6.70;;
77109;SDS011;66062;52.464;16.922;2023-06-14T07:23:03;8.30;;;6.60;;
77109;SDS011;66062;52.464;16.922;2023-06-14T07:25:29;8.50;;;6.05;;
77109;SDS011;66062;52.464;16.922;2023-06-14T07:27:54;9.57;;;6.93;;
77109;SDS011;66062;52.464;16.922;2023-06-14T07:30:19;10.43;;;6.00;;
77109;SDS011;66062;52.464;16.922;2023-06-14T07:32:45;15.63;;;5.80;;
77109;SDS011;66062;52.464;16.922;2023-06-14T07:35:11;9.05;;;5.60;;
77109;SDS011;66062;52.464;16.922;2023-06-14T07:37:36;8.10;;;6.07;;
77109;SDS011;66062;52.464;16.922;2023-06-14T07:40:02;9.13;;;6.05;;
77109;SDS011;66062;52.464;16.922;2023-06-14T07:42:32;10.70;;;6.30;;
77109;SDS011;66062;52.464;16.922;2023-06-14T07:44:59;11.35;;;5.82;;
77109;SDS011;66062;52.464;16.922;2023-06-14T07:47:24;6.40;;;4.63;;
77109;SDS011;66062;52.464;16.922;2023-06-14T07:49:50;6.28;;;5.18;;
77109;SDS011;66062;52.464;16.922;2023-06-14T07:52:15;9.90;;;5.57;;
77109;SDS011;66062;52.464;16.922;2023-06-14T07:54:41;6.05;;;4.68;;
77109;SDS011;66062;52.464;16.922;2023-06-14T07:57:06;8.80;;;4.50;;
77109;SDS011;66062;52.464;16.922;2023-06-14T07:59:32;6.97;;;4.50;;
77109;SDS011;66062;52.464;16.922;2023-06-14T08:01:58;7.55;;;4.97;;
77109;SDS011;66062;52.464;16.922;2023-06-14T08:04:24;5.78;;;4.15;;
77109;SDS011;66062;52.464;16.922;2023-06-14T08:06:50;6.45;;;4.32;;
77109;SDS011;66062;52.464;16.922;2023-06-14T08:09:15;7.20;;;4.50;;
77109;SDS011;66062;52.464;16.922;2023-06-14T08:11:41;8.23;;;4.35;;
77109;SDS011;66062;52.464;16.922;2023-06-14T08:14:06;6.88;;;4.78;;
77109;SDS011;66062;52.464;16.922;2023-06-14T08:16:33;8.13;;;4.10;;
77109;SDS011;66062;52.464;16.922;2023-06-14T08:18:59;6.53;;;3.65;;
77109;SDS011;66062;52.464;16.922;2023-06-14T08:21:24;7.50;;;4.15;;
77109;SDS011;66062;52.464;16.922;2023-06-14T08:23:54;7.05;;;3.15;;
77109;SDS011;66062;52.464;16.922;2023-06-14T08:26:20;5.95;;;3.55;;
77109;SDS011;66062;52.464;16.922;2023-06-14T08:28:46;5.43;;;3.88;;
77109;SDS011;66062;52.464;16.922;2023-06-14T08:31:11;5.80;;;3.53;;
77109;SDS011;66062;52.464;16.922;2023-06-14T08:33:37;8.35;;;3.65;;
77109;SDS011;66062;52.464;16.922;2023-06-14T08:36:04;5.88;;;3.60;;
77109;SDS011;66062;52.464;16.922;2023-06-14T08:38:29;4.28;;;3.03;;
77109;SDS011;66062;52.464;16.922;2023-06-14T08:40:56;5.18;;;3.00;;
77109;SDS011;66062;52.464;16.922;2023-06-14T08:43:22;8.00;;;3.20;;
77109;SDS011;66062;52.464;16.922;2023-06-14T08:45:48;9.25;;;2.63;;
77109;SDS011;66062;52.464;16.922;2023-06-14T08:48:17;4.13;;;2.70;;
77109;SDS011;66062;52.464;16.922;2023-06-14T08:50:45;6.35;;;2.92;;
77109;SDS011;66062;52.464;16.922;2023-06-14T08:53:13;8.35;;;2.83;;
77109;SDS011;66062;52.464;16.922;2023-06-14T08:55:44;4.57;;;2.72;;
77109;SDS011;66062;52.464;16.922;2023-06-14T08:58:10;6.63;;;3.33;;
77109;SDS011;66062;52.464;16.922;2023-06-14T09:00:39;4.70;;;2.35;;
77109;SDS011;66062;52.464;16.922;2023-06-14T09:03:06;6.15;;;2.83;;
77109;SDS011;66062;52.464;16.922;2023-06-14T09:05:35;5.68;;;2.97;;
77109;SDS011;66062;52.464;16.922;2023-06-14T09:08:01;8.32;;;2.83;;
77109;SDS011;66062;52.464;16.922;2023-06-14T09:10:26;5.28;;;2.70;;
77109;SDS011;66062;52.464;16.922;2023-06-14T09:12:52;6.47;;;3.08;;
77109;SDS011;66062;52.464;16.922;2023-06-14T09:15:18;5.00;;;3.05;;
77109;SDS011;66062;52.464;16.922;2023-06-14T09:17:43;8.05;;;2.80;;
77109;SDS011;66062;52.464;16.922;2023-06-14T09:20:09;13.43;;;3.15;;
77109;SDS011;66062;52.464;16.922;2023-06-14T09:22:35;11.45;;;2.95;;
77109;SDS011;66062;52.464;16.922;2023-06-14T09:27:28;6.43;;;2.78;;
77109;SDS011;66062;52.464;16.922;2023-06-14T09:29:54;15.00;;;3.25;;
77109;SDS011;66062;52.464;16.922;2023-06-14T09:32:23;10.68;;;2.95;;
77109;SDS011;66062;52.464;16.922;2023-06-14T09:34:48;13.02;;;3.70;;
77109;SDS011;66062;52.464;16.922;2023-06-14T09:37:30;14.18;;;3.40;;
77109;SDS011;66062;52.464;16.922;2023-06-14T09:39:56;8.18;;;3.22;;
77109;SDS011;66062;52.464;16.922;2023-06-14T09:42:23;11.13;;;2.88;;
77109;SDS011;66062;52.464;16.922;2023-06-14T09:44:53;5.40;;;2.90;;
77109;SDS011;66062;52.464;16.922;2023-06-14T09:47:20;11.07;;;3.00;;
77109;SDS011;66062;52.464;16.922;2023-06-14T09:49:47;11.82;;;2.65;;
77109;SDS011;66062;52.464;16.922;2023-06-14T09:52:19;7.82;;;1.73;;
77109;SDS011;66062;52.464;16.922;2023-06-14T09:54:46;9.60;;;2.58;;
77109;SDS011;66062;52.464;16.922;2023-06-14T09:57:16;4.60;;;2.47;;
77109;SDS011;66062;52.464;16.922;2023-06-14T09:59:46;6.70;;;2.50;;
77109;SDS011;66062;52.464;16.922;2023-06-14T10:02:22;8.02;;;2.55;;
77109;SDS011;66062;52.464;16.922;2023-06-14T10:05:12;5.53;;;2.90;;
77109;SDS011;66062;52.464;16.922;2023-06-14T10:07:48;6.75;;;2.85;;
77109;SDS011;66062;52.464;16.922;2023-06-14T10:10:17;6.60;;;2.80;;
77109;SDS011;66062;52.464;16.922;2023-06-14T10:12:43;5.70;;;2.58;;
77109;SDS011;66062;52.464;16.922;2023-06-14T10:15:09;6.78;;;3.10;;
77109;SDS011;66062;52.464;16.922;2023-06-14T10:17:45;7.72;;;2.70;;
77109;SDS011;66062;52.464;16.922;2023-06-14T10:23:16;4.20;;;2.88;;
77109;SDS011;66062;52.464;16.922;2023-06-14T10:25:42;4.80;;;3.00;;
77109;SDS011;66062;52.464;16.922;2023-06-14T10:28:17;5.88;;;2.47;;
77109;SDS011;66062;52.464;16.922;2023-06-14T10:33:32;4.47;;;2.85;;
77109;SDS011;66062;52.464;16.922;2023-06-14T10:38:57;7.53;;;3.15;;
77109;SDS011;66062;52.464;16.922;2023-06-14T10:41:29;6.30;;;3.55;;
77109;SDS011;66062;52.464;16.922;2023-06-14T10:46:39;8.80;;;3.13;;
77109;SDS011;66062;52.464;16.922;2023-06-14T10:51:38;6.15;;;3.10;;
77109;SDS011;66062;52.464;16.922;2023-06-14T10:54:13;8.35;;;3.67;;
77109;SDS011;66062;52.464;16.922;2023-06-14T10:56:46;8.38;;;3.38;;
77109;SDS011;66062;52.464;16.922;2023-06-14T10:59:12;6.88;;;3.45;;
77109;SDS011;66062;52.464;16.922;2023-06-14T11:01:40;9.75;;;4.55;;
77109;SDS011;66062;52.464;16.922;2023-06-14T11:04:14;7.57;;;3.30;;
77109;SDS011;66062;52.464;16.922;2023-06-14T11:12:25;6.18;;;3.63;;
77109;SDS011;66062;52.464;16.922;2023-06-14T11:14:53;5.20;;;3.50;;
77109;SDS011;66062;52.464;16.922;2023-06-14T11:17:18;9.13;;;3.60;;
77109;SDS011;66062;52.464;16.922;2023-06-14T11:19:43;5.50;;;3.22;;
77109;SDS011;66062;52.464;16.922;2023-06-14T11:22:09;9.05;;;3.55;;
77109;SDS011;66062;52.464;16.922;2023-06-14T11:24:35;8.85;;;3.95;;
77109;SDS011;66062;52.464;16.922;2023-06-14T11:27:00;7.30;;;2.95;;
77109;SDS011;66062;52.464;16.922;2023-06-14T11:29:26;7.18;;;3.33;;
77109;SDS011;66062;52.464;16.922;2023-06-14T11:31:54;6.25;;;2.70;;
77109;SDS011;66062;52.464;16.922;2023-06-14T11:34:20;7.20;;;3.58;;
77109;SDS011;66062;52.464;16.922;2023-06-14T11:36:45;9.23;;;3.00;;
77109;SDS011;66062;52.464;16.922;2023-06-14T11:39:12;4.25;;;2.67;;
77109;SDS011;66062;52.464;16.922;2023-06-14T11:41:40;4.93;;;2.88;;
77109;SDS011;66062;52.464;16.922;2023-06-14T11:44:07;6.93;;;3.53;;
77109;SDS011;66062;52.464;16.922;2023-06-14T11:46:33;5.78;;;2.78;;
77109;SDS011;66062;52.464;16.922;2023-06-14T11:49:01;5.55;;;3.05;;
77109;SDS011;66062;52.464;16.922;2023-06-14T11:51:32;6.90;;;3.15;;
77109;SDS011;66062;52.464;16.922;2023-06-14T11:53:59;5.55;;;3.00;;
77109;SDS011;66062;52.464;16.922;2023-06-14T11:56:25;7.10;;;3.40;;
77109;SDS011;66062;52.464;16.922;2023-06-14T11:58:52;12.30;;;2.92;;
77109;SDS011;66062;52.464;16.922;2023-06-14T12:01:21;7.50;;;3.25;;
77109;SDS011;66062;52.464;16.922;2023-06-14T12:03:47;9.00;;;2.90;;
77109;SDS011;66062;52.464;16.922;2023-06-14T12:06:14;10.82;;;3.50;;
77109;SDS011;66062;52.464;16.922;2023-06-14T12:08:40;5.53;;;3.35;;
77109;SDS011;66062;52.464;16.922;2023-06-14T12:11:10;6.82;;;3.30;;
77109;SDS011;66062;52.464;16.922;2023-06-14T12:13:38;4.63;;;2.95;;
77109;SDS011;66062;52.464;16.922;2023-06-14T12:16:06;7.38;;;2.95;;
77109;SDS011;66062;52.464;16.922;2023-06-14T12:18:33;6.43;;;2.83;;
77109;SDS011;66062;52.464;16.922;2023-06-14T12:20:59;5.60;;;2.33;;
77109;SDS011;66062;52.464;16.922;2023-06-14T12:23:38;11.00;;;2.88;;
77109;SDS011;66062;52.464;16.922;2023-06-14T12:26:14;5.30;;;2.85;;
77109;SDS011;66062;52.464;16.922;2023-06-14T12:28:41;4.85;;;2.63;;
77109;SDS011;66062;52.464;16.922;2023-06-14T12:31:11;9.13;;;2.97;;
77109;SDS011;66062;52.464;16.922;2023-06-14T12:33:37;4.55;;;3.05;;
77109;SDS011;66062;52.464;16.922;2023-06-14T12:36:04;5.05;;;3.10;;
77109;SDS011;66062;52.464;16.922;2023-06-14T12:38:31;5.32;;;2.78;;
77109;SDS011;66062;52.464;16.922;2023-06-14T12:40:57;11.35;;;3.30;;
77109;SDS011;66062;52.464;16.922;2023-06-14T12:43:22;6.68;;;2.55;;
77109;SDS011;66062;52.464;16.922;2023-06-14T12:45:48;7.85;;;2.83;;
77109;SDS011;66062;52.464;16.922;2023-06-14T12:48:13;5.85;;;2.88;;
77109;SDS011;66062;52.464;16.922;2023-06-14T12:50:40;6.88;;;3.13;;
77109;SDS011;66062;52.464;16.922;2023-06-14T12:53:06;6.63;;;2.90;;
77109;SDS011;66062;52.464;16.922;2023-06-14T12:55:31;5.25;;;3.10;;
77109;SDS011;66062;52.464;16.922;2023-06-14T12:57:57;3.45;;;2.75;;
77109;SDS011;66062;52.464;16.922;2023-06-14T13:00:23;6.85;;;2.90;;
77109;SDS011;66062;52.464;16.922;2023-06-14T13:02:50;6.93;;;2.80;;
77109;SDS011;66062;52.464;16.922;2023-06-14T13:05:16;7.32;;;3.28;;
77109;SDS011;66062;52.464;16.922;2023-06-14T13:07:42;3.25;;;2.55;;
77109;SDS011;66062;52.464;16.922;2023-06-14T13:10:08;4.75;;;2.55;;
77109;SDS011;66062;52.464;16.922;2023-06-14T13:12:33;5.00;;;2.85;;
77109;SDS011;66062;52.464;16.922;2023-06-14T13:14:59;3.03;;;2.05;;
77109;SDS011;66062;52.464;16.922;2023-06-14T13:17:24;7.10;;;2.38;;
77109;SDS011;66062;52.464;16.922;2023-06-14T13:19:49;5.78;;;3.00;;
77109;SDS011;66062;52.464;16.922;2023-06-14T13:22:15;4.72;;;2.95;;
77109;SDS011;66062;52.464;16.922;2023-06-14T13:24:40;4.15;;;2.47;;
77109;SDS011;66062;52.464;16.922;2023-06-14T13:27:06;4.68;;;2.42;;
77109;SDS011;66062;52.464;16.922;2023-06-14T13:29:31;6.43;;;2.67;;
77109;SDS011;66062;52.464;16.922;2023-06-14T13:31:58;9.27;;;3.05;;
77109;SDS011;66062;52.464;16.922;2023-06-14T13:34:24;4.43;;;2.78;;
77109;SDS011;66062;52.464;16.922;2023-06-14T13:36:49;7.43;;;2.50;;
77109;SDS011;66062;52.464;16.922;2023-06-14T13:39:15;5.80;;;2.78;;
77109;SDS011;66062;52.464;16.922;2023-06-14T13:41:41;4.70;;;2.60;;
77109;SDS011;66062;52.464;16.922;2023-06-14T13:44:06;6.93;;;2.67;;
77109;SDS011;66062;52.464;16.922;2023-06-14T13:46:32;3.60;;;2.13;;
77109;SDS011;66062;52.464;16.922;2023-06-14T13:48:57;5.20;;;2.40;;
77109;SDS011;66062;52.464;16.922;2023-06-14T13:51:23;7.68;;;2.35;;
77109;SDS011;66062;52.464;16.922;2023-06-14T13:53:48;5.43;;;2.95;;
77109;SDS011;66062;52.464;16.922;2023-06-14T13:56:15;8.30;;;2.78;;
77109;SDS011;66062;52.464;16.922;2023-06-14T13:58:42;5.38;;;2.70;;
77109;SDS011;66062;52.464;16.922;2023-06-14T14:01:10;6.28;;;2.65;;
77109;SDS011;66062;52.464;16.922;2023-06-14T14:03:37;5.38;;;2.67;;
77109;SDS011;66062;52.464;16.922;2023-06-14T14:06:03;5.20;;;2.33;;
77109;SDS011;66062;52.464;16.922;2023-06-14T14:08:28;5.03;;;2.65;;
77109;SDS011;66062;52.464;16.922;2023-06-14T14:10:54;4.95;;;2.30;;
77109;SDS011;66062;52.464;16.922;2023-06-14T14:15:46;8.63;;;3.08;;
77109;SDS011;66062;52.464;16.922;2023-06-14T14:18:12;10.23;;;2.63;;
77109;SDS011;66062;52.464;16.922;2023-06-14T14:20:37;7.95;;;3.08;;
77109;SDS011;66062;52.464;16.922;2023-06-14T14:23:02;10.32;;;3.17;;
77109;SDS011;66062;52.464;16.922;2023-06-14T14:25:28;5.78;;;2.92;;
77109;SDS011;66062;52.464;16.922;2023-06-14T14:27:53;5.20;;;3.45;;
77109;SDS011;66062;52.464;16.922;2023-06-14T14:30:19;4.65;;;3.17;;
77109;SDS011;66062;52.464;16.922;2023-06-14T14:32:48;6.20;;;3.22;;
77109;SDS011;66062;52.464;16.922;2023-06-14T14:35:15;7.25;;;3.08;;
77109;SDS011;66062;52.464;16.922;2023-06-14T14:37:42;7.20;;;3.20;;
77109;SDS011;66062;52.464;16.922;2023-06-14T14:40:08;8.35;;;4.03;;
77109;SDS011;66062;52.464;16.922;2023-06-14T14:42:35;9.85;;;3.33;;
77109;SDS011;66062;52.464;16.922;2023-06-14T14:45:01;6.30;;;2.55;;
77109;SDS011;66062;52.464;16.922;2023-06-14T14:47:26;8.25;;;3.30;;
77109;SDS011;66062;52.464;16.922;2023-06-14T14:49:52;9.95;;;3.58;;
77109;SDS011;66062;52.464;16.922;2023-06-14T14:52:17;5.93;;;3.08;;
77109;SDS011;66062;52.464;16.922;2023-06-14T14:54:43;4.93;;;2.40;;
77109;SDS011;66062;52.464;16.922;2023-06-14T14:57:08;7.25;;;2.50;;
77109;SDS011;66062;52.464;16.922;2023-06-14T14:59:33;7.55;;;4.50;;
77109;SDS011;66062;52.464;16.922;2023-06-14T15:01:59;4.18;;;2.47;;
77109;SDS011;66062;52.464;16.922;2023-06-14T15:04:25;8.57;;;2.72;;